createdAt,value
2018-02-09T00:02:40.388Z,68.94
2018-02-09T00:07:41.771Z,68.90
2018-02-09T00:12:43.120Z,68.95
2018-02-09T00:17:44.412Z,68.99
2018-02-09T00:22:52.562Z,68.92
2018-02-09T00:27:55.528Z,69.04
2018-02-09T00:32:56.931Z,69.09
2018-02-09T00:37:58.302Z,69.12
2018-02-09T00:42:59.836Z,69.05
2018-02-09T00:48:01.229Z,69.13
2018-02-09T00:53:02.536Z,69.02
2018-02-09T00:58:03.925Z,69.14
2018-02-09T01:03:05.264Z,69.13
2018-02-09T01:08:06.621Z,69.22
2018-02-09T01:13:07.930Z,69.41
2018-02-09T01:18:10.040Z,69.34
2018-02-09T01:23:12.118Z,69.32
2018-02-09T01:28:13.526Z,69.41
2018-02-09T01:33:15.611Z,69.57
2018-02-09T01:38:16.972Z,69.62
2018-02-09T01:43:18.337Z,69.43
2018-02-09T01:48:19.754Z,69.58
2018-02-09T01:53:21.082Z,69.64
2018-02-09T01:58:22.438Z,69.51
2018-02-09T02:03:23.777Z,69.65
2018-02-09T02:08:25.852Z,69.65
2018-02-09T02:13:27.151Z,69.73
2018-02-09T02:18:28.464Z,69.74
2018-02-09T02:23:30.607Z,69.60
2018-02-09T02:28:31.966Z,69.52
2018-02-09T02:33:33.354Z,69.73
2018-02-09T02:38:35.418Z,69.83
2018-02-09T02:43:36.765Z,70.13
2018-02-09T02:48:38.110Z,70.10
2018-02-09T02:53:39.476Z,70.10
2018-02-09T02:58:40.878Z,70.21
2018-02-09T03:03:42.296Z,70.02
2018-02-09T03:08:44.367Z,69.93
2018-02-09T03:13:45.667Z,69.96
2018-02-09T03:18:47.020Z,69.97
2018-02-09T03:23:48.338Z,69.89
2018-02-09T03:28:49.641Z,69.87
2018-02-09T03:33:50.998Z,70.33
2018-02-09T03:38:52.380Z,70.19
2018-02-09T03:43:53.734Z,70.28
2018-02-09T03:48:55.799Z,70.10
2018-02-09T03:53:57.231Z,69.91
2018-02-09T03:58:58.548Z,69.97
2018-02-09T04:03:59.944Z,70.14
2018-02-09T04:09:01.329Z,70.07
2018-02-09T04:14:02.776Z,70.35
2018-02-09T04:19:04.147Z,70.20
2018-02-09T04:24:05.511Z,70.38
2018-02-09T04:29:06.896Z,70.27
2018-02-09T04:34:08.231Z,70.10
2018-02-09T04:39:09.539Z,70.41
2018-02-09T04:44:10.885Z,69.94
2018-02-09T04:49:12.216Z,70.00
2018-02-09T04:54:14.468Z,70.05
2018-02-09T04:59:15.805Z,69.94
2018-02-09T05:04:17.244Z,69.86
2018-02-09T05:09:18.651Z,69.84
2018-02-09T05:14:19.991Z,69.59
2018-02-09T05:19:22.055Z,69.86
2018-02-09T05:24:23.423Z,69.77
2018-02-09T05:29:24.769Z,69.74
2018-02-09T05:34:26.122Z,69.63
2018-02-09T05:39:27.584Z,69.52
2018-02-09T05:44:28.959Z,69.38
2018-02-09T05:49:31.152Z,69.51
2018-02-09T05:54:32.729Z,69.45
2018-02-09T05:59:34.079Z,69.62
2018-02-09T06:04:35.493Z,69.45
2018-02-09T06:09:36.854Z,69.40
2018-02-09T06:14:38.195Z,69.65
2018-02-09T06:19:39.609Z,69.79
2018-02-09T06:24:41.661Z,69.95
2018-02-09T06:29:43.008Z,69.62
2018-02-09T06:34:45.062Z,69.86
2018-02-09T06:39:46.419Z,72.29
2018-02-09T06:44:47.746Z,71.63
2018-02-09T06:49:49.115Z,71.08
2018-02-09T06:54:50.537Z,70.76
2018-02-09T06:59:51.873Z,70.73
2018-02-09T07:04:53.960Z,70.50
2018-02-09T07:09:56.039Z,70.54
2018-02-09T07:14:57.371Z,70.49
2018-02-09T07:19:59.414Z,70.60
2018-02-09T07:25:00.777Z,70.55
2018-02-09T07:30:02.131Z,70.60
2018-02-09T07:35:03.476Z,70.80
2018-02-09T07:40:04.813Z,71.00
2018-02-09T07:45:06.120Z,70.84
2018-02-09T07:50:08.749Z,70.22
2018-02-09T07:55:10.709Z,69.86
2018-02-09T08:00:12.206Z,69.60
2018-02-09T08:05:13.519Z,69.46
2018-02-09T08:10:15.186Z,69.20
2018-02-09T08:15:16.826Z,69.06
2018-02-09T08:20:18.440Z,68.73
2018-02-09T08:25:20.008Z,68.58
2018-02-09T08:30:21.436Z,68.31
2018-02-09T08:35:22.825Z,68.04
2018-02-09T08:40:24.422Z,67.68
2018-02-09T08:45:25.731Z,67.35
2018-02-09T08:50:27.051Z,67.08
2018-02-09T08:55:28.385Z,66.75
2018-02-09T09:00:29.783Z,66.39
2018-02-09T09:05:31.207Z,66.26
2018-02-09T09:10:32.578Z,65.71
2018-02-09T09:15:33.928Z,65.01
2018-02-09T09:20:36.082Z,64.73
2018-02-09T09:25:37.412Z,64.14
2018-02-09T09:30:38.740Z,63.69
2018-02-09T09:35:40.101Z,63.30
2018-02-09T09:40:42.186Z,62.44
2018-02-09T09:45:50.442Z,61.87
2018-02-09T09:50:51.854Z,61.33
2018-02-09T09:55:53.916Z,61.58
2018-02-09T10:00:55.267Z,61.04
2018-02-09T10:05:56.593Z,60.46
2018-02-09T10:10:57.937Z,60.21
2018-02-09T10:15:59.304Z,59.38
2018-02-09T10:21:00.676Z,59.19
2018-02-09T10:26:02.079Z,58.42
2018-02-09T10:31:03.566Z,58.22
2018-02-09T10:36:04.915Z,58.15
2018-02-09T10:41:06.237Z,57.92
2018-02-09T10:46:07.629Z,57.40
2018-02-09T10:51:08.987Z,57.57
2018-02-09T10:56:10.662Z,57.32
2018-02-09T11:06:47.903Z,56.86
2018-02-09T11:11:49.575Z,56.69
2018-02-09T11:16:50.936Z,56.46
2018-02-09T11:21:52.263Z,56.06
2018-02-09T11:26:53.580Z,55.46
2018-02-09T11:31:54.930Z,55.21
2018-02-09T11:36:56.275Z,55.36
2018-02-09T11:41:58.418Z,54.86
2018-02-09T11:46:59.788Z,54.82
2018-02-09T11:52:01.140Z,54.49
2018-02-09T11:57:02.524Z,54.36
2018-02-09T12:02:03.851Z,53.92
2018-02-09T12:07:05.939Z,53.61
2018-02-09T12:12:07.289Z,53.45
2018-02-09T12:17:08.654Z,53.61
2018-02-09T12:22:10.032Z,53.75
2018-02-09T12:27:11.923Z,53.58
2018-02-09T12:32:14.309Z,53.65
2018-02-09T12:37:15.888Z,53.88
2018-02-09T12:42:17.559Z,53.66
2018-02-09T12:47:19.131Z,53.90
2018-02-09T12:52:20.739Z,54.03
2018-02-09T12:57:22.119Z,54.52
2018-02-09T13:02:24.243Z,54.80
2018-02-09T13:07:25.622Z,55.26
2018-02-09T13:12:45.470Z,54.74
2018-02-09T13:17:46.982Z,55.26
2018-02-09T13:23:06.888Z,54.64
2018-02-09T13:28:08.463Z,55.33
2018-02-09T13:33:31.156Z,54.56
2018-02-09T13:38:33.900Z,53.92
2018-02-09T13:43:36.011Z,53.72
2018-02-09T13:48:37.866Z,53.63
2018-02-09T13:53:40.636Z,53.33
2018-02-09T13:58:42.336Z,53.40
2018-02-09T14:03:43.804Z,53.14
2018-02-09T14:08:45.383Z,53.50
2018-02-09T14:13:49.106Z,53.25
2018-02-09T14:18:50.833Z,52.98
2018-02-09T14:23:53.119Z,53.50
2018-02-09T14:28:55.350Z,53.33
2018-02-09T14:33:56.826Z,53.53
2018-02-09T14:38:58.237Z,53.14
2018-02-09T14:44:00.497Z,53.03
2018-02-09T14:49:02.174Z,53.11
2018-02-09T14:54:03.781Z,53.32
2018-02-09T14:59:05.544Z,53.51
2018-02-09T15:04:07.035Z,53.64
2018-02-09T15:09:09.301Z,53.63
2018-02-09T15:14:11.226Z,53.83
2018-02-09T15:19:12.645Z,53.94
2018-02-09T15:24:14.862Z,53.94
2018-02-09T15:29:17.135Z,53.97
2018-02-09T15:34:18.553Z,53.83
2018-02-09T15:39:20.726Z,54.27
2018-02-09T15:44:22.235Z,54.42
2018-02-09T15:49:23.701Z,54.64
2018-02-09T15:54:25.102Z,54.88
2018-02-09T15:59:26.569Z,55.41
2018-02-09T16:04:28.006Z,55.56
2018-02-09T16:09:29.352Z,56.33
2018-02-09T16:14:30.662Z,56.75
2018-02-09T16:19:32.015Z,57.21
2018-02-09T16:24:34.103Z,57.62
2018-02-09T16:29:35.436Z,57.93
2018-02-09T16:34:36.808Z,58.16
2018-02-09T16:39:38.131Z,58.96
2018-02-09T16:44:39.508Z,60.12
2018-02-09T16:49:40.840Z,60.61
2018-02-09T16:54:42.336Z,61.31
2018-02-09T16:59:43.722Z,61.53
2018-02-09T17:04:45.102Z,61.62
2018-02-09T17:09:46.527Z,61.82
2018-02-09T17:14:47.852Z,61.90
2018-02-09T17:19:49.218Z,61.98
2018-02-09T17:24:51.526Z,62.24
2018-02-09T17:29:54.510Z,62.59
2018-02-09T17:34:56.528Z,62.82
2018-02-09T17:39:57.970Z,62.81
2018-02-09T17:45:00.124Z,62.83
2018-02-09T17:50:01.470Z,62.90
2018-02-09T17:55:02.903Z,63.11
2018-02-09T18:00:04.321Z,63.74
2018-02-09T18:05:05.665Z,64.26
2018-02-09T18:10:07.221Z,64.68
2018-02-09T18:15:08.563Z,64.86
2018-02-09T18:20:10.035Z,64.85
2018-02-09T18:25:11.687Z,64.90
2018-02-09T18:30:13.088Z,65.09
2018-02-09T18:35:15.043Z,65.33
2018-02-09T18:40:16.503Z,65.28
2018-02-09T18:45:17.862Z,65.07
2018-02-09T18:50:19.315Z,65.21
2018-02-09T18:55:20.908Z,65.65
2018-02-09T19:00:22.252Z,65.64
2018-02-09T19:05:23.683Z,65.93
2018-02-09T19:10:25.059Z,65.73
2018-02-09T19:15:26.380Z,66.00
2018-02-09T19:20:27.734Z,65.64
2018-02-09T19:25:29.152Z,65.63
2018-02-09T19:30:30.496Z,65.35
2018-02-09T19:35:31.871Z,65.40
2018-02-09T19:40:33.595Z,65.50
2018-02-09T19:45:35.766Z,65.79
2018-02-09T19:50:37.123Z,66.04
2018-02-09T19:55:38.472Z,66.29
2018-02-09T20:00:40.643Z,66.16
2018-02-09T20:05:42.083Z,66.25
2018-02-09T20:10:44.148Z,66.13
2018-02-09T20:15:45.554Z,65.82
2018-02-09T20:20:46.916Z,65.73
2018-02-09T20:25:48.258Z,66.03
2018-02-09T20:30:50.410Z,66.31
2018-02-09T20:35:51.769Z,66.68
2018-02-09T20:40:53.112Z,66.96
2018-02-09T20:45:55.212Z,67.24
2018-02-09T20:50:56.579Z,67.04
2018-02-09T20:55:58.036Z,66.96
2018-02-09T21:01:00.128Z,67.07
2018-02-09T21:06:01.529Z,66.96
2018-02-09T21:11:03.707Z,67.12
2018-02-09T21:16:05.092Z,67.39
2018-02-09T21:21:06.438Z,67.32
2018-02-09T21:26:08.146Z,67.21
2018-02-09T21:31:09.522Z,67.26
2018-02-09T21:36:10.927Z,67.22
2018-02-09T21:41:12.243Z,67.37
2018-02-09T21:46:13.680Z,67.27
2018-02-09T21:51:15.808Z,67.52
2018-02-09T21:56:17.131Z,67.85
2018-02-09T22:01:18.471Z,67.75
2018-02-09T22:06:20.583Z,67.83
2018-02-09T22:11:22.628Z,68.13
2018-02-09T22:16:23.976Z,68.07
2018-02-09T22:21:26.059Z,68.29
2018-02-09T22:26:27.410Z,68.21
2018-02-09T22:31:28.766Z,67.96
2018-02-09T22:36:31.046Z,67.85
2018-02-09T22:41:32.513Z,67.82
2018-02-09T22:46:34.908Z,67.79
2018-02-09T22:51:36.376Z,67.55
2018-02-09T22:56:38.115Z,67.55
2018-02-09T23:01:39.645Z,67.52
2018-02-09T23:06:41.080Z,67.62
2018-02-09T23:11:42.575Z,67.89
2018-02-09T23:16:43.988Z,67.92
2018-02-09T23:21:45.609Z,67.92
2018-02-09T23:26:46.947Z,68.01
2018-02-09T23:31:48.323Z,68.22
2018-02-09T23:36:50.402Z,68.37
2018-02-09T23:41:51.903Z,68.20
2018-02-09T23:46:53.247Z,68.35
2018-02-09T23:51:54.569Z,68.40
2018-02-09T23:56:55.892Z,68.42
